sensor_id;sensor_type;location;lat;lon;timestamp;P1;durP1;ratioP1;P2;durP2;ratioP2
83682;SDS011;73663;51.298;5.802;2024-02-21T00:00:42;20.67;;;6.68;;
83682;SDS011;73663;51.298;5.802;2024-02-21T00:05:50;19.60;;;7.15;;
83682;SDS011;73663;51.298;5.802;2024-02-21T00:10:57;17.00;;;7.22;;
83682;SDS011;73663;51.298;5.802;2024-02-21T00:16:05;18.45;;;7.57;;
83682;SDS011;73663;51.298;5.802;2024-02-21T00:21:13;20.45;;;6.45;;
83682;SDS011;73663;51.298;5.802;2024-02-21T00:26:20;17.83;;;6.13;;
83682;SDS011;73663;51.298;5.802;2024-02-21T00:31:28;20.23;;;7.95;;
83682;SDS011;73663;51.298;5.802;2024-02-21T00:36:35;20.77;;;6.90;;
83682;SDS011;73663;51.298;5.802;2024-02-21T00:41:42;17.77;;;7.35;;
83682;SDS011;73663;51.298;5.802;2024-02-21T00:46:50;24.25;;;8.30;;
83682;SDS011;73663;51.298;5.802;2024-02-21T00:51:57;19.08;;;7.20;;
83682;SDS011;73663;51.298;5.802;2024-02-21T00:57:05;26.83;;;8.18;;
83682;SDS011;73663;51.298;5.802;2024-02-21T01:02:12;16.85;;;7.53;;
83682;SDS011;73663;51.298;5.802;2024-02-21T01:07:20;20.95;;;8.68;;
83682;SDS011;73663;51.298;5.802;2024-02-21T01:12:27;22.35;;;8.25;;
83682;SDS011;73663;51.298;5.802;2024-02-21T01:17:35;23.65;;;8.32;;
83682;SDS011;73663;51.298;5.802;2024-02-21T01:28:39;22.40;;;8.20;;
83682;SDS011;73663;51.298;5.802;2024-02-21T01:33:47;22.83;;;8.27;;
83682;SDS011;73663;51.298;5.802;2024-02-21T01:38:54;24.88;;;8.27;;
83682;SDS011;73663;51.298;5.802;2024-02-21T01:44:02;23.40;;;8.35;;
83682;SDS011;73663;51.298;5.802;2024-02-21T01:49:10;17.88;;;6.80;;
83682;SDS011;73663;51.298;5.802;2024-02-21T01:54:17;21.17;;;7.65;;
83682;SDS011;73663;51.298;5.802;2024-02-21T02:05:23;18.48;;;7.25;;
83682;SDS011;73663;51.298;5.802;2024-02-21T02:10:31;21.52;;;6.95;;
83682;SDS011;73663;51.298;5.802;2024-02-21T02:15:44;15.93;;;7.10;;
83682;SDS011;73663;51.298;5.802;2024-02-21T02:20:52;16.13;;;7.18;;
83682;SDS011;73663;51.298;5.802;2024-02-21T02:26:00;22.02;;;7.32;;
83682;SDS011;73663;51.298;5.802;2024-02-21T02:31:07;19.20;;;6.75;;
83682;SDS011;73663;51.298;5.802;2024-02-21T02:36:15;18.38;;;6.60;;
83682;SDS011;73663;51.298;5.802;2024-02-21T02:41:22;20.80;;;8.02;;
83682;SDS011;73663;51.298;5.802;2024-02-21T02:46:29;25.15;;;7.40;;
83682;SDS011;73663;51.298;5.802;2024-02-21T02:51:37;18.55;;;7.05;;
83682;SDS011;73663;51.298;5.802;2024-02-21T02:56:48;18.05;;;6.60;;
83682;SDS011;73663;51.298;5.802;2024-02-21T03:01:57;17.23;;;6.53;;
83682;SDS011;73663;51.298;5.802;2024-02-21T03:07:04;20.23;;;6.47;;
83682;SDS011;73663;51.298;5.802;2024-02-21T03:12:12;17.52;;;7.30;;
83682;SDS011;73663;51.298;5.802;2024-02-21T03:17:21;16.02;;;6.10;;
83682;SDS011;73663;51.298;5.802;2024-02-21T03:22:29;16.65;;;6.18;;
83682;SDS011;73663;51.298;5.802;2024-02-21T03:27:36;18.45;;;7.38;;
83682;SDS011;73663;51.298;5.802;2024-02-21T03:32:44;21.20;;;5.53;;
83682;SDS011;73663;51.298;5.802;2024-02-21T03:37:51;15.45;;;6.18;;
83682;SDS011;73663;51.298;5.802;2024-02-21T03:42:59;12.55;;;5.60;;
83682;SDS011;73663;51.298;5.802;2024-02-21T03:48:07;15.07;;;5.70;;
83682;SDS011;73663;51.298;5.802;2024-02-21T03:53:14;15.93;;;5.45;;
83682;SDS011;73663;51.298;5.802;2024-02-21T03:58:22;16.15;;;5.38;;
83682;SDS011;73663;51.298;5.802;2024-02-21T04:03:29;14.18;;;4.85;;
83682;SDS011;73663;51.298;5.802;2024-02-21T04:08:37;15.50;;;6.03;;
83682;SDS011;73663;51.298;5.802;2024-02-21T04:13:44;12.88;;;5.10;;
83682;SDS011;73663;51.298;5.802;2024-02-21T04:18:52;12.57;;;4.55;;
83682;SDS011;73663;51.298;5.802;2024-02-21T04:23:59;14.02;;;5.35;;
83682;SDS011;73663;51.298;5.802;2024-02-21T04:29:07;10.23;;;4.97;;
83682;SDS011;73663;51.298;5.802;2024-02-21T04:34:15;16.95;;;5.28;;
83682;SDS011;73663;51.298;5.802;2024-02-21T04:39:22;12.30;;;4.90;;
83682;SDS011;73663;51.298;5.802;2024-02-21T04:44:30;12.93;;;4.85;;
83682;SDS011;73663;51.298;5.802;2024-02-21T04:49:37;11.27;;;4.63;;
83682;SDS011;73663;51.298;5.802;2024-02-21T04:54:45;16.88;;;5.53;;
83682;SDS011;73663;51.298;5.802;2024-02-21T04:59:53;13.68;;;5.70;;
83682;SDS011;73663;51.298;5.802;2024-02-21T05:05:00;13.70;;;5.93;;
83682;SDS011;73663;51.298;5.802;2024-02-21T05:10:08;21.83;;;5.82;;
83682;SDS011;73663;51.298;5.802;2024-02-21T05:15:15;16.75;;;5.47;;
83682;SDS011;73663;51.298;5.802;2024-02-21T05:20:23;17.50;;;5.70;;
83682;SDS011;73663;51.298;5.802;2024-02-21T05:25:30;14.90;;;5.30;;
83682;SDS011;73663;51.298;5.802;2024-02-21T05:30:37;17.88;;;5.10;;
83682;SDS011;73663;51.298;5.802;2024-02-21T05:35:45;13.05;;;5.45;;
83682;SDS011;73663;51.298;5.802;2024-02-21T05:40:52;17.40;;;5.45;;
83682;SDS011;73663;51.298;5.802;2024-02-21T05:46:00;15.85;;;4.88;;
83682;SDS011;73663;51.298;5.802;2024-02-21T05:51:07;16.20;;;5.32;;
83682;SDS011;73663;51.298;5.802;2024-02-21T05:56:15;12.38;;;5.78;;
83682;SDS011;73663;51.298;5.802;2024-02-21T06:01:22;14.50;;;4.97;;
83682;SDS011;73663;51.298;5.802;2024-02-21T06:06:30;14.32;;;5.88;;
83682;SDS011;73663;51.298;5.802;2024-02-21T06:11:37;14.43;;;5.10;;
83682;SDS011;73663;51.298;5.802;2024-02-21T06:16:45;14.15;;;5.82;;
83682;SDS011;73663;51.298;5.802;2024-02-21T06:21:52;16.00;;;5.28;;
83682;SDS011;73663;51.298;5.802;2024-02-21T06:27:00;16.13;;;6.05;;
83682;SDS011;73663;51.298;5.802;2024-02-21T06:32:08;10.43;;;5.65;;
83682;SDS011;73663;51.298;5.802;2024-02-21T06:37:15;12.07;;;5.72;;
83682;SDS011;73663;51.298;5.802;2024-02-21T06:42:24;12.55;;;4.95;;
83682;SDS011;73663;51.298;5.802;2024-02-21T06:47:31;12.75;;;5.57;;
83682;SDS011;73663;51.298;5.802;2024-02-21T06:52:39;12.48;;;4.95;;
83682;SDS011;73663;51.298;5.802;2024-02-21T06:57:46;13.15;;;5.05;;
83682;SDS011;73663;51.298;5.802;2024-02-21T07:02:54;11.05;;;4.97;;
83682;SDS011;73663;51.298;5.802;2024-02-21T07:08:01;11.05;;;4.55;;
83682;SDS011;73663;51.298;5.802;2024-02-21T07:13:09;9.60;;;4.32;;
83682;SDS011;73663;51.298;5.802;2024-02-21T07:18:16;8.18;;;4.15;;
83682;SDS011;73663;51.298;5.802;2024-02-21T07:23:24;11.55;;;5.03;;
83682;SDS011;73663;51.298;5.802;2024-02-21T07:28:31;12.55;;;4.80;;
83682;SDS011;73663;51.298;5.802;2024-02-21T07:33:39;14.82;;;4.72;;
83682;SDS011;73663;51.298;5.802;2024-02-21T07:38:46;6.93;;;3.67;;
83682;SDS011;73663;51.298;5.802;2024-02-21T07:43:54;8.75;;;4.72;;
83682;SDS011;73663;51.298;5.802;2024-02-21T07:49:01;14.23;;;5.22;;
83682;SDS011;73663;51.298;5.802;2024-02-21T07:54:09;9.70;;;4.55;;
83682;SDS011;73663;51.298;5.802;2024-02-21T07:59:16;8.70;;;3.88;;
83682;SDS011;73663;51.298;5.802;2024-02-21T08:04:23;10.32;;;4.85;;
83682;SDS011;73663;51.298;5.802;2024-02-21T08:09:31;6.50;;;3.15;;
83682;SDS011;73663;51.298;5.802;2024-02-21T08:14:38;8.15;;;3.85;;
83682;SDS011;73663;51.298;5.802;2024-02-21T08:19:46;11.90;;;3.80;;
83682;SDS011;73663;51.298;5.802;2024-02-21T08:24:53;7.07;;;4.18;;
83682;SDS011;73663;51.298;5.802;2024-02-21T08:30:01;7.32;;;3.75;;
83682;SDS011;73663;51.298;5.802;2024-02-21T08:35:09;9.20;;;3.53;;
83682;SDS011;73663;51.298;5.802;2024-02-21T08:40:16;8.63;;;4.05;;
83682;SDS011;73663;51.298;5.802;2024-02-21T08:45:24;14.82;;;3.75;;
83682;SDS011;73663;51.298;5.802;2024-02-21T08:50:31;9.55;;;4.18;;
83682;SDS011;73663;51.298;5.802;2024-02-21T08:55:39;9.52;;;3.60;;
83682;SDS011;73663;51.298;5.802;2024-02-21T09:00:46;8.30;;;3.80;;
83682;SDS011;73663;51.298;5.802;2024-02-21T09:05:54;8.40;;;4.32;;
83682;SDS011;73663;51.298;5.802;2024-02-21T09:11:01;7.88;;;3.67;;
83682;SDS011;73663;51.298;5.802;2024-02-21T09:16:09;8.60;;;3.63;;
83682;SDS011;73663;51.298;5.802;2024-02-21T09:21:17;8.98;;;3.88;;
83682;SDS011;73663;51.298;5.802;2024-02-21T09:26:24;7.07;;;2.90;;
83682;SDS011;73663;51.298;5.802;2024-02-21T09:31:32;9.38;;;3.63;;
83682;SDS011;73663;51.298;5.802;2024-02-21T09:36:39;12.13;;;3.97;;
83682;SDS011;73663;51.298;5.802;2024-02-21T09:41:47;7.72;;;3.35;;
83682;SDS011;73663;51.298;5.802;2024-02-21T09:47:06;7.72;;;3.38;;
83682;SDS011;73663;51.298;5.802;2024-02-21T09:52:14;7.72;;;3.58;;
83682;SDS011;73663;51.298;5.802;2024-02-21T09:57:23;4.75;;;2.88;;
83682;SDS011;73663;51.298;5.802;2024-02-21T10:02:31;7.80;;;2.88;;
83682;SDS011;73663;51.298;5.802;2024-02-21T10:07:38;8.18;;;2.95;;
83682;SDS011;73663;51.298;5.802;2024-02-21T10:12:52;6.75;;;2.65;;
83682;SDS011;73663;51.298;5.802;2024-02-21T10:18:00;6.80;;;2.58;;
83682;SDS011;73663;51.298;5.802;2024-02-21T10:23:11;6.95;;;2.83;;
83682;SDS011;73663;51.298;5.802;2024-02-21T10:28:18;9.43;;;3.17;;
83682;SDS011;73663;51.298;5.802;2024-02-21T10:33:26;7.18;;;2.83;;
83682;SDS011;73663;51.298;5.802;2024-02-21T10:38:33;6.78;;;2.65;;
83682;SDS011;73663;51.298;5.802;2024-02-21T10:43:41;7.35;;;3.00;;
83682;SDS011;73663;51.298;5.802;2024-02-21T10:48:52;4.63;;;2.92;;
83682;SDS011;73663;51.298;5.802;2024-02-21T10:54:21;4.80;;;2.42;;
83682;SDS011;73663;51.298;5.802;2024-02-21T10:59:38;6.90;;;3.85;;
83682;SDS011;73663;51.298;5.802;2024-02-21T11:04:47;9.07;;;2.95;;
83682;SDS011;73663;51.298;5.802;2024-02-21T11:09:55;5.78;;;3.15;;
83682;SDS011;73663;51.298;5.802;2024-02-21T11:15:06;9.73;;;3.17;;
83682;SDS011;73663;51.298;5.802;2024-02-21T11:20:13;7.60;;;2.83;;
83682;SDS011;73663;51.298;5.802;2024-02-21T11:25:24;10.23;;;3.10;;
83682;SDS011;73663;51.298;5.802;2024-02-21T11:30:32;5.40;;;2.88;;
83682;SDS011;73663;51.298;5.802;2024-02-21T11:35:40;5.32;;;2.80;;
83682;SDS011;73663;51.298;5.802;2024-02-21T11:40:48;6.15;;;2.50;;
83682;SDS011;73663;51.298;5.802;2024-02-21T11:46:05;5.45;;;2.65;;
83682;SDS011;73663;51.298;5.802;2024-02-21T11:51:12;5.93;;;3.03;;
83682;SDS011;73663;51.298;5.802;2024-02-21T11:56:29;8.05;;;2.80;;
83682;SDS011;73663;51.298;5.802;2024-02-21T12:01:36;10.75;;;2.80;;
83682;SDS011;73663;51.298;5.802;2024-02-21T12:06:44;6.93;;;2.70;;
83682;SDS011;73663;51.298;5.802;2024-02-21T12:12:01;8.82;;;3.00;;
83682;SDS011;73663;51.298;5.802;2024-02-21T12:17:14;10.32;;;2.90;;
83682;SDS011;73663;51.298;5.802;2024-02-21T12:22:21;5.88;;;2.85;;
83682;SDS011;73663;51.298;5.802;2024-02-21T12:27:29;9.27;;;3.30;;
83682;SDS011;73663;51.298;5.802;2024-02-21T12:32:36;7.78;;;2.80;;
83682;SDS011;73663;51.298;5.802;2024-02-21T12:37:44;7.38;;;2.58;;
83682;SDS011;73663;51.298;5.802;2024-02-21T12:42:51;9.10;;;2.80;;
83682;SDS011;73663;51.298;5.802;2024-02-21T12:47:59;5.72;;;2.65;;
83682;SDS011;73663;51.298;5.802;2024-02-21T12:53:06;7.03;;;2.60;;
83682;SDS011;73663;51.298;5.802;2024-02-21T12:58:14;3.63;;;2.30;;
83682;SDS011;73663;51.298;5.802;2024-02-21T13:03:21;6.32;;;2.65;;
83682;SDS011;73663;51.298;5.802;2024-02-21T13:08:29;3.72;;;2.35;;
83682;SDS011;73663;51.298;5.802;2024-02-21T13:13:36;5.85;;;2.10;;
83682;SDS011;73663;51.298;5.802;2024-02-21T13:18:44;5.65;;;2.42;;
83682;SDS011;73663;51.298;5.802;2024-02-21T13:23:51;5.85;;;2.20;;
83682;SDS011;73663;51.298;5.802;2024-02-21T13:28:59;5.28;;;2.35;;
83682;SDS011;73663;51.298;5.802;2024-02-21T13:34:06;5.78;;;2.55;;
83682;SDS011;73663;51.298;5.802;2024-02-21T13:39:13;3.30;;;2.25;;
83682;SDS011;73663;51.298;5.802;2024-02-21T13:44:21;4.93;;;2.63;;
83682;SDS011;73663;51.298;5.802;2024-02-21T13:49:29;5.32;;;2.25;;
83682;SDS011;73663;51.298;5.802;2024-02-21T13:54:36;5.63;;;2.20;;
83682;SDS011;73663;51.298;5.802;2024-02-21T13:59:44;5.10;;;2.47;;
83682;SDS011;73663;51.298;5.802;2024-02-21T14:04:51;5.07;;;2.17;;
83682;SDS011;73663;51.298;5.802;2024-02-21T14:09:59;5.18;;;2.10;;
83682;SDS011;73663;51.298;5.802;2024-02-21T14:15:06;5.60;;;2.08;;
83682;SDS011;73663;51.298;5.802;2024-02-21T14:20:14;4.18;;;1.90;;
83682;SDS011;73663;51.298;5.802;2024-02-21T14:25:21;6.43;;;2.10;;
83682;SDS011;73663;51.298;5.802;2024-02-21T14:30:29;5.03;;;1.92;;
83682;SDS011;73663;51.298;5.802;2024-02-21T14:35:36;3.63;;;1.80;;
83682;SDS011;73663;51.298;5.802;2024-02-21T14:40:44;4.85;;;1.67;;
83682;SDS011;73663;51.298;5.802;2024-02-21T14:45:51;2.90;;;1.60;;
83682;SDS011;73663;51.298;5.802;2024-02-21T14:50:59;4.72;;;1.80;;
83682;SDS011;73663;51.298;5.802;2024-02-21T14:56:06;3.95;;;1.73;;
83682;SDS011;73663;51.298;5.802;2024-02-21T15:01:19;2.88;;;1.63;;
83682;SDS011;73663;51.298;5.802;2024-02-21T15:06:27;5.20;;;1.70;;
83682;SDS011;73663;51.298;5.802;2024-02-21T15:11:34;5.95;;;1.95;;
83682;SDS011;73663;51.298;5.802;2024-02-21T15:16:41;7.82;;;2.13;;
83682;SDS011;73663;51.298;5.802;2024-02-21T15:21:49;6.93;;;2.13;;
83682;SDS011;73663;51.298;5.802;2024-02-21T15:26:56;5.28;;;1.85;;
83682;SDS011;73663;51.298;5.802;2024-02-21T15:32:05;4.85;;;1.80;;
83682;SDS011;73663;51.298;5.802;2024-02-21T15:37:12;5.78;;;2.40;;
83682;SDS011;73663;51.298;5.802;2024-02-21T15:42:20;7.30;;;2.08;;
83682;SDS011;73663;51.298;5.802;2024-02-21T15:47:27;5.85;;;2.28;;
83682;SDS011;73663;51.298;5.802;2024-02-21T15:52:35;7.20;;;2.47;;
83682;SDS011;73663;51.298;5.802;2024-02-21T15:57:42;4.57;;;1.88;;
83682;SDS011;73663;51.298;5.802;2024-02-21T16:02:50;7.95;;;2.25;;
83682;SDS011;73663;51.298;5.802;2024-02-21T16:07:57;5.57;;;1.77;;
83682;SDS011;73663;51.298;5.802;2024-02-21T16:13:06;4.70;;;2.15;;
83682;SDS011;73663;51.298;5.802;2024-02-21T16:18:13;6.75;;;2.47;;
83682;SDS011;73663;51.298;5.802;2024-02-21T16:23:23;2.88;;;1.77;;
83682;SDS011;73663;51.298;5.802;2024-02-21T16:28:30;8.20;;;2.50;;
83682;SDS011;73663;51.298;5.802;2024-02-21T16:33:38;5.70;;;2.60;;
83682;SDS011;73663;51.298;5.802;2024-02-21T16:38:45;7.05;;;2.47;;
83682;SDS011;73663;51.298;5.802;2024-02-21T16:43:53;4.90;;;2.28;;
83682;SDS011;73663;51.298;5.802;2024-02-21T16:49:01;5.85;;;2.92;;
83682;SDS011;73663;51.298;5.802;2024-02-21T16:54:08;4.70;;;2.47;;
83682;SDS011;73663;51.298;5.802;2024-02-21T16:59:16;6.00;;;2.50;;
83682;SDS011;73663;51.298;5.802;2024-02-21T17:04:24;5.75;;;2.70;;
83682;SDS011;73663;51.298;5.802;2024-02-21T17:09:31;8.00;;;2.72;;
83682;SDS011;73663;51.298;5.802;2024-02-21T17:14:38;5.10;;;3.05;;
83682;SDS011;73663;51.298;5.802;2024-02-21T17:19:46;5.32;;;2.50;;
83682;SDS011;73663;51.298;5.802;2024-02-21T17:24:53;7.65;;;2.38;;
83682;SDS011;73663;51.298;5.802;2024-02-21T17:30:01;7.57;;;2.97;;
83682;SDS011;73663;51.298;5.802;2024-02-21T17:35:08;4.85;;;2.42;;
83682;SDS011;73663;51.298;5.802;2024-02-21T17:40:16;8.20;;;2.65;;
83682;SDS011;73663;51.298;5.802;2024-02-21T17:45:23;4.60;;;2.83;;
83682;SDS011;73663;51.298;5.802;2024-02-21T17:50:31;6.80;;;3.80;;
83682;SDS011;73663;51.298;5.802;2024-02-21T17:55:38;9.02;;;4.07;;
83682;SDS011;73663;51.298;5.802;2024-02-21T18:00:46;8.75;;;3.80;;
83682;SDS011;73663;51.298;5.802;2024-02-21T18:05:53;7.60;;;3.08;;
83682;SDS011;73663;51.298;5.802;2024-02-21T18:11:01;4.50;;;2.42;;
83682;SDS011;73663;51.298;5.802;2024-02-21T18:16:09;4.80;;;2.58;;
83682;SDS011;73663;51.298;5.802;2024-02-21T18:21:17;5.65;;;2.78;;
83682;SDS011;73663;51.298;5.802;2024-02-21T18:26:25;7.35;;;3.38;;
83682;SDS011;73663;51.298;5.802;2024-02-21T18:31:32;6.13;;;2.80;;
83682;SDS011;73663;51.298;5.802;2024-02-21T18:36:40;8.50;;;2.90;;
83682;SDS011;73663;51.298;5.802;2024-02-21T18:41:47;8.85;;;2.85;;
83682;SDS011;73663;51.298;5.802;2024-02-21T18:46:55;4.35;;;2.80;;
83682;SDS011;73663;51.298;5.802;2024-02-21T18:52:02;8.18;;;3.00;;
83682;SDS011;73663;51.298;5.802;2024-02-21T18:57:10;9.30;;;3.35;;
83682;SDS011;73663;51.298;5.802;2024-02-21T19:02:18;8.63;;;3.50;;
83682;SDS011;73663;51.298;5.802;2024-02-21T19:07:25;9.98;;;3.38;;
83682;SDS011;73663;51.298;5.802;2024-02-21T19:12:33;6.68;;;3.08;;
83682;SDS011;73663;51.298;5.802;2024-02-21T19:17:40;5.80;;;3.28;;
83682;SDS011;73663;51.298;5.802;2024-02-21T19:22:48;4.93;;;2.60;;
83682;SDS011;73663;51.298;5.802;2024-02-21T19:27:55;4.38;;;2.60;;
83682;SDS011;73663;51.298;5.802;2024-02-21T19:33:03;7.60;;;2.88;;
83682;SDS011;73663;51.298;5.802;2024-02-21T19:38:10;4.15;;;2.75;;
83682;SDS011;73663;51.298;5.802;2024-02-21T19:43:18;8.60;;;3.35;;
83682;SDS011;73663;51.298;5.802;2024-02-21T19:48:25;6.00;;;3.00;;
83682;SDS011;73663;51.298;5.802;2024-02-21T19:53:33;4.65;;;2.47;;
83682;SDS011;73663;51.298;5.802;2024-02-21T19:58:40;5.22;;;2.50;;
83682;SDS011;73663;51.298;5.802;2024-02-21T20:03:48;4.18;;;2.60;;
83682;SDS011;73663;51.298;5.802;2024-02-21T20:08:55;4.95;;;2.70;;
83682;SDS011;73663;51.298;5.802;2024-02-21T20:14:03;4.80;;;2.30;;
83682;SDS011;73663;51.298;5.802;2024-02-21T20:19:10;4.38;;;2.63;;
83682;SDS011;73663;51.298;5.802;2024-02-21T20:24:18;3.45;;;1.98;;
83682;SDS011;73663;51.298;5.802;2024-02-21T20:29:26;4.47;;;2.22;;
83682;SDS011;73663;51.298;5.802;2024-02-21T20:34:33;5.65;;;2.22;;
83682;SDS011;73663;51.298;5.802;2024-02-21T20:39:41;2.70;;;1.88;;
83682;SDS011;73663;51.298;5.802;2024-02-21T20:44:48;3.38;;;1.90;;
83682;SDS011;73663;51.298;5.802;2024-02-21T20:49:56;4.05;;;2.10;;
83682;SDS011;73663;51.298;5.802;2024-02-21T20:55:03;4.55;;;1.90;;
83682;SDS011;73663;51.298;5.802;2024-02-21T21:00:11;2.53;;;1.60;;
83682;SDS011;73663;51.298;5.802;2024-02-21T21:05:19;4.78;;;1.80;;
83682;SDS011;73663;51.298;5.802;2024-02-21T21:10:26;3.13;;;1.70;;
83682;SDS011;73663;51.298;5.802;2024-02-21T21:15:34;4.10;;;1.73;;
83682;SDS011;73663;51.298;5.802;2024-02-21T21:20:41;2.33;;;1.80;;
83682;SDS011;73663;51.298;5.802;2024-02-21T21:25:49;1.90;;;1.35;;
83682;SDS011;73663;51.298;5.802;2024-02-21T21:30:59;2.88;;;1.70;;
83682;SDS011;73663;51.298;5.802;2024-02-21T21:36:07;1.60;;;1.40;;
83682;SDS011;73663;51.298;5.802;2024-02-21T21:41:15;3.05;;;1.25;;
83682;SDS011;73663;51.298;5.802;2024-02-21T21:46:22;2.28;;;1.67;;
83682;SDS011;73663;51.298;5.802;2024-02-21T21:51:30;1.80;;;1.25;;
83682;SDS011;73663;51.298;5.802;2024-02-21T21:56:37;2.42;;;1.33;;
83682;SDS011;73663;51.298;5.802;2024-02-21T22:01:45;2.90;;;1.65;;
83682;SDS011;73663;51.298;5.802;2024-02-21T22:06:52;2.03;;;1.48;;
83682;SDS011;73663;51.298;5.802;2024-02-21T22:12:00;1.23;;;1.02;;
83682;SDS011;73663;51.298;5.802;2024-02-21T22:17:07;2.70;;;1.48;;
83682;SDS011;73663;51.298;5.802;2024-02-21T22:22:15;2.20;;;1.20;;
83682;SDS011;73663;51.298;5.802;2024-02-21T22:27:22;2.42;;;1.00;;
83682;SDS011;73663;51.298;5.802;2024-02-21T22:32:30;2.60;;;1.20;;
83682;SDS011;73663;51.298;5.802;2024-02-21T22:37:37;1.50;;;1.10;;
83682;SDS011;73663;51.298;5.802;2024-02-21T22:42:45;2.20;;;1.10;;
83682;SDS011;73663;51.298;5.802;2024-02-21T22:47:53;1.52;;;0.90;;
83682;SDS011;73663;51.298;5.802;2024-02-21T22:53:01;1.30;;;0.90;;
83682;SDS011;73663;51.298;5.802;2024-02-21T22:58:08;1.50;;;1.05;;
83682;SDS011;73663;51.298;5.802;2024-02-21T23:03:16;1.90;;;1.02;;
83682;SDS011;73663;51.298;5.802;2024-02-21T23:08:23;1.25;;;1.05;;
83682;SDS011;73663;51.298;5.802;2024-02-21T23:13:31;1.52;;;1.00;;
83682;SDS011;73663;51.298;5.802;2024-02-21T23:18:38;1.17;;;0.98;;
83682;SDS011;73663;51.298;5.802;2024-02-21T23:23:46;1.95;;;1.02;;
83682;SDS011;73663;51.298;5.802;2024-02-21T23:28:53;2.45;;;1.02;;
83682;SDS011;73663;51.298;5.802;2024-02-21T23:34:01;2.72;;;0.98;;
83682;SDS011;73663;51.298;5.802;2024-02-21T23:39:08;1.10;;;0.80;;
83682;SDS011;73663;51.298;5.802;2024-02-21T23:44:16;1.50;;;1.10;;
83682;SDS011;73663;51.298;5.802;2024-02-21T23:49:23;1.30;;;1.00;;
83682;SDS011;73663;51.298;5.802;2024-02-21T23:54:31;1.73;;;0.95;;
83682;SDS011;73663;51.298;5.802;2024-02-21T23:59:38;1.13;;;0.90;;
